Pagrindinis puslapis
METAR-TAF:

METAR-TAF

Oro uostai :

Hollister, Kalifornija, Jungtinės Amerikos Valstijos

platuma: 36-53-36N, ilguma: 121-24-37W, Aukštis: 70 m

Dabartinis oras

Ataskaita buvo paskelbta 23 minutes, ne 21:55 UTC
Ramus vėjas
Temperatūra 16°C
Drėgmė 55%
Slėgis 1016 hPa
Matomumas: 16.1 km
Giedras dangus

METAR: KCVH 252155Z AUTO 00000KT 10SM CLR 16/07 A3000 RMK A01

Laikas: 14:18 (22:18 UTC)


TAF: trūkstamas

Orai ataskaitas ir orų prognozės (METAR, TAF).

turimą stotys yra geltonos ir raudonos taškus žemėlapyje.

Perkelti pele per norėdami pamatyti stoties vardą.

Tada spustelėkite, norėdami matyti oro stebėjimo ir prognozės.

Norėdami pakeisti žemėlapį: spustelėkite ant žalios mygtukų su juodo kryžiaus žemyn,; žalią mygtuką su brūkšneliu, jei norite nutolinti; arba žalių rodyklių gretimoms žemėlapius.


METAR-TAF: